Terminal Aerodrome Forecast
Issued by NWS Paducah, KY

Home | Current Version | Previous Version | Graphics & Text | Print | Product List | Glossary On
Versions: 1 2 3 4 5 6 7 8 9 10 11 12 13 14 15 16 17 18
000
FTUS43 KPAH 192000 AAA
TAFEVV
TAF AMD
KEVV 192038Z 1921/2018 21009KT P6SM SCT040 BKN150
     FM200100 VRB03KT P6SM FEW040 SCT100
     FM200900 00000KT 3SM BR SKC
     FM201400 25007KT P6SM FEW030=

USA.gov is the U.S. government's official web portal to all federal, state and local government web resources and services.